createdAt,value
2018-03-14T00:00:11.961Z,3.90
2018-03-14T00:02:39.450Z,3.90
2018-03-14T00:05:06.925Z,3.90
2018-03-14T00:07:34.401Z,4.00
2018-03-14T00:10:01.907Z,3.90
2018-03-14T00:12:29.960Z,3.90
2018-03-14T00:14:57.434Z,3.90
2018-03-14T00:17:24.971Z,3.90
2018-03-14T00:19:52.447Z,3.90
2018-03-14T00:22:32.020Z,3.90
2018-03-14T00:24:59.610Z,3.90
2018-03-14T00:27:27.371Z,3.90
2018-03-14T00:29:54.879Z,3.90
2018-03-14T00:32:22.382Z,3.90
2018-03-14T00:34:49.848Z,3.80
2018-03-14T00:37:17.309Z,3.90
2018-03-14T00:39:44.833Z,3.80
2018-03-14T00:42:12.311Z,3.80
2018-03-14T00:44:39.797Z,3.80
2018-03-14T00:47:07.267Z,3.80
2018-03-14T00:49:34.735Z,3.80
2018-03-14T00:52:02.203Z,3.80
2018-03-14T00:54:30.440Z,3.80
2018-03-14T00:56:57.923Z,3.80
2018-03-14T00:59:25.398Z,3.80
2018-03-14T01:01:52.887Z,3.80
2018-03-14T01:04:20.363Z,3.80
2018-03-14T01:06:47.835Z,3.80
2018-03-14T01:09:16.101Z,3.80
2018-03-14T01:11:43.566Z,3.80
2018-03-14T01:14:11.080Z,3.80
2018-03-14T01:16:38.548Z,3.80
2018-03-14T01:19:06.017Z,3.80
2018-03-14T01:21:34.284Z,3.80
2018-03-14T01:24:01.743Z,3.80
2018-03-14T01:26:29.333Z,3.80
2018-03-14T01:28:56.845Z,3.80
2018-03-14T01:31:24.331Z,3.80
2018-03-14T01:33:51.810Z,3.80
2018-03-14T01:36:19.285Z,3.80
2018-03-14T01:38:46.772Z,3.80
2018-03-14T01:41:14.237Z,3.80
2018-03-14T01:43:41.707Z,3.80
2018-03-14T01:46:09.961Z,3.70
2018-03-14T01:48:37.425Z,3.70
2018-03-14T01:51:04.890Z,3.70
2018-03-14T01:53:33.964Z,3.70
2018-03-14T01:56:01.455Z,3.70
2018-03-14T01:58:28.938Z,3.70
2018-03-14T02:00:56.423Z,3.70
2018-03-14T02:03:23.888Z,3.70
2018-03-14T02:05:51.376Z,3.70
2018-03-14T02:08:18.837Z,3.70
2018-03-14T02:10:46.347Z,3.70
2018-03-14T02:13:13.833Z,3.70
2018-03-14T02:15:41.318Z,3.70
2018-03-14T02:18:08.852Z,3.70
2018-03-14T02:20:36.331Z,3.70
2018-03-14T02:23:03.809Z,3.70
2018-03-14T02:25:32.071Z,3.70
2018-03-14T02:27:59.538Z,3.60
2018-03-14T02:30:27.011Z,3.70
2018-03-14T02:32:54.476Z,3.70
2018-03-14T02:35:22.748Z,3.70
2018-03-14T02:37:50.222Z,3.60
2018-03-14T02:40:17.703Z,3.60
2018-03-14T02:42:45.177Z,3.60
2018-03-14T02:45:12.646Z,3.60
2018-03-14T02:47:40.099Z,3.60
2018-03-14T02:50:07.557Z,3.60
2018-03-14T02:52:35.010Z,3.70
2018-03-14T02:55:02.514Z,3.60
2018-03-14T02:57:29.966Z,3.60
2018-03-14T02:59:57.425Z,3.60
2018-03-14T03:02:25.679Z,3.50
2018-03-14T03:04:53.165Z,3.60
2018-03-14T03:07:20.618Z,3.50
2018-03-14T03:09:48.100Z,3.50
2018-03-14T03:12:16.327Z,3.50
2018-03-14T03:14:43.799Z,3.50
2018-03-14T03:17:12.026Z,3.40
2018-03-14T03:19:39.498Z,3.40
2018-03-14T03:22:07.746Z,3.50
2018-03-14T03:24:35.239Z,3.50
2018-03-14T03:27:02.695Z,3.50
2018-03-14T03:29:30.189Z,3.50
2018-03-14T03:31:57.671Z,3.50
2018-03-14T03:34:26.087Z,3.60
2018-03-14T03:36:53.546Z,3.60
2018-03-14T03:39:21.803Z,3.50
2018-03-14T03:41:49.258Z,3.50
2018-03-14T03:44:16.730Z,3.60
2018-03-14T03:46:44.967Z,3.50
2018-03-14T03:49:12.475Z,3.50
2018-03-14T03:51:39.959Z,3.60
2018-03-14T03:54:07.442Z,3.60
2018-03-14T03:56:34.901Z,3.60
2018-03-14T03:59:02.382Z,3.60
2018-03-14T04:01:29.899Z,3.60
2018-03-14T04:03:57.376Z,3.60
2018-03-14T04:06:24.877Z,3.70
2018-03-14T04:08:52.345Z,3.70
2018-03-14T04:11:19.844Z,3.70
2018-03-14T04:13:47.334Z,3.70
2018-03-14T04:16:14.802Z,3.60
2018-03-14T04:18:42.262Z,3.70
2018-03-14T04:21:09.726Z,3.70
2018-03-14T04:23:37.958Z,3.70
2018-03-14T04:26:05.420Z,3.60
2018-03-14T04:28:32.879Z,3.60
2018-03-14T04:31:00.344Z,3.70
2018-03-14T04:33:27.802Z,3.70
2018-03-14T04:35:55.355Z,3.70
2018-03-14T04:38:22.835Z,3.70
2018-03-14T04:40:50.298Z,3.70
2018-03-14T04:43:17.766Z,3.80
2018-03-14T04:45:45.225Z,3.80
2018-03-14T04:48:13.449Z,3.80
2018-03-14T04:50:41.714Z,3.80
2018-03-14T04:53:09.173Z,3.80
2018-03-14T04:55:36.676Z,3.80
2018-03-14T04:58:04.149Z,3.80
2018-03-14T05:00:31.623Z,3.80
2018-03-14T05:02:59.126Z,3.80
2018-03-14T05:05:26.611Z,3.80
2018-03-14T05:10:28.134Z,3.80
2018-03-14T05:12:55.624Z,3.80
2018-03-14T05:15:23.096Z,3.90
2018-03-14T05:17:50.553Z,3.90
2018-03-14T05:20:18.087Z,3.80
2018-03-14T05:22:45.607Z,3.80
2018-03-14T05:25:13.877Z,3.90
2018-03-14T05:27:41.358Z,3.90
2018-03-14T05:30:08.826Z,3.90
2018-03-14T05:32:37.153Z,3.80
2018-03-14T05:35:04.611Z,3.80
2018-03-14T05:37:32.118Z,3.80
2018-03-14T05:39:59.603Z,3.80
2018-03-14T05:42:27.062Z,3.80
2018-03-14T05:44:54.562Z,3.80
2018-03-14T05:47:22.031Z,3.80
2018-03-14T05:49:50.286Z,3.90
2018-03-14T05:52:17.807Z,3.80
2018-03-14T05:54:45.270Z,3.90
2018-03-14T05:57:12.828Z,3.90
2018-03-14T05:59:41.103Z,3.90
2018-03-14T06:02:08.578Z,3.90
2018-03-14T06:04:36.836Z,4.00
2018-03-14T06:07:04.290Z,4.00
2018-03-14T06:09:31.838Z,4.00
2018-03-14T06:11:59.306Z,4.00
2018-03-14T06:14:27.539Z,4.00
2018-03-14T06:16:55.784Z,4.00
2018-03-14T06:19:23.272Z,4.00
2018-03-14T06:21:50.750Z,4.00
2018-03-14T06:24:18.242Z,4.00
2018-03-14T06:26:45.706Z,4.00
2018-03-14T06:29:13.255Z,4.00
2018-03-14T06:31:40.715Z,4.00
2018-03-14T06:34:08.202Z,4.00
2018-03-14T06:36:35.679Z,4.10
2018-03-14T06:39:03.139Z,4.10
2018-03-14T06:41:31.374Z,4.10
2018-03-14T06:43:58.885Z,4.10
2018-03-14T06:46:26.346Z,4.10
2018-03-14T06:48:53.850Z,4.10
2018-03-14T06:51:21.415Z,4.20
2018-03-14T06:53:48.875Z,4.20
2018-03-14T06:56:16.343Z,4.20
2018-03-14T06:58:55.763Z,4.30
2018-03-14T07:01:35.139Z,4.30
2018-03-14T07:04:14.575Z,4.30
2018-03-14T07:06:42.040Z,4.40
2018-03-14T07:09:09.499Z,4.40
2018-03-14T07:11:36.966Z,4.40
2018-03-14T07:14:04.429Z,4.50
2018-03-14T07:16:31.890Z,4.60
2018-03-14T07:18:59.354Z,4.60
2018-03-14T07:21:27.578Z,4.50
2018-03-14T07:23:55.054Z,4.60
2018-03-14T07:26:22.581Z,4.60
2018-03-14T07:28:50.046Z,4.50
2018-03-14T07:31:17.515Z,4.60
2018-03-14T07:33:45.746Z,4.70
2018-03-14T07:36:13.226Z,4.70
2018-03-14T07:38:40.688Z,4.80
2018-03-14T07:41:08.147Z,4.90
2018-03-14T07:43:35.612Z,5.00
2018-03-14T07:46:03.878Z,5.00
2018-03-14T07:48:31.337Z,5.00
2018-03-14T07:50:58.799Z,5.00
2018-03-14T07:53:26.318Z,5.00
2018-03-14T07:55:53.785Z,5.10
2018-03-14T07:58:21.264Z,5.10
2018-03-14T08:00:48.773Z,5.20
2018-03-14T08:03:16.231Z,5.10
2018-03-14T08:05:43.732Z,5.10
2018-03-14T08:08:11.163Z,5.10
2018-03-14T08:10:38.709Z,5.10
2018-03-14T08:13:06.194Z,5.10
2018-03-14T08:15:33.663Z,5.10
2018-03-14T08:18:01.128Z,5.10
2018-03-14T08:20:28.662Z,5.00
2018-03-14T08:22:56.130Z,5.10
2018-03-14T08:25:23.595Z,5.10
2018-03-14T08:27:51.054Z,5.20
2018-03-14T08:30:19.278Z,5.30
2018-03-14T08:32:47.518Z,5.30
2018-03-14T08:35:14.991Z,5.30
2018-03-14T08:37:43.238Z,5.40
2018-03-14T08:40:10.707Z,5.40
2018-03-14T08:42:38.182Z,5.30
2018-03-14T08:45:05.640Z,5.50
2018-03-14T08:47:33.872Z,5.40
2018-03-14T08:50:01.370Z,5.40
2018-03-14T08:52:28.858Z,5.50
2018-03-14T08:54:56.322Z,5.50
2018-03-14T08:57:23.795Z,5.60
2018-03-14T08:59:51.259Z,5.70
2018-03-14T09:02:19.486Z,5.60
2018-03-14T09:04:46.949Z,5.60
2018-03-14T09:07:14.402Z,5.60
2018-03-14T09:09:41.929Z,5.60
2018-03-14T09:12:09.402Z,5.50
2018-03-14T09:14:36.863Z,5.40
2018-03-14T09:17:04.374Z,5.50
2018-03-14T09:19:31.847Z,5.60
2018-03-14T09:21:59.355Z,5.60
2018-03-14T09:24:26.830Z,5.70
2018-03-14T09:26:54.314Z,5.70
2018-03-14T09:29:21.775Z,5.80
2018-03-14T09:31:49.293Z,5.90
2018-03-14T09:34:16.763Z,5.80
2018-03-14T09:36:44.223Z,5.80
2018-03-14T09:39:11.792Z,5.90
2018-03-14T09:41:40.018Z,6.00
2018-03-14T09:44:07.478Z,6.00
2018-03-14T09:46:35.030Z,6.10
2018-03-14T09:49:02.491Z,6.00
2018-03-14T09:51:30.034Z,6.00
2018-03-14T09:53:57.476Z,6.10
2018-03-14T09:56:24.936Z,6.20
2018-03-14T09:58:52.399Z,6.30
2018-03-14T10:01:19.923Z,6.40
2018-03-14T10:03:47.379Z,6.30
2018-03-14T10:06:14.842Z,6.30
2018-03-14T10:08:43.068Z,6.30
2018-03-14T10:11:10.527Z,6.30
2018-03-14T10:13:38.754Z,6.30
2018-03-14T10:16:06.215Z,6.30
2018-03-14T10:18:34.446Z,6.40
2018-03-14T10:21:01.914Z,6.40
2018-03-14T10:23:30.278Z,6.50
2018-03-14T10:25:58.424Z,6.50
2018-03-14T10:28:25.935Z,6.70
2018-03-14T10:30:53.400Z,6.80
2018-03-14T10:33:20.922Z,6.80
2018-03-14T10:35:48.390Z,6.90
2018-03-14T10:38:15.891Z,6.90
2018-03-14T10:40:43.393Z,7.00
2018-03-14T10:43:10.850Z,6.80
2018-03-14T10:45:38.353Z,6.80
2018-03-14T10:48:06.602Z,6.80
2018-03-14T10:50:34.062Z,6.80
2018-03-14T10:53:01.523Z,6.90
2018-03-14T10:55:28.985Z,7.00
2018-03-14T10:57:56.446Z,7.10
2018-03-14T11:00:26.963Z,7.10
2018-03-14T11:03:00.209Z,7.00
2018-03-14T11:05:27.678Z,6.90
2018-03-14T11:07:55.171Z,7.00
2018-03-14T11:10:23.057Z,7.00
2018-03-14T11:12:50.613Z,6.90
2018-03-14T11:15:18.074Z,6.90
2018-03-14T11:17:45.573Z,7.00
2018-03-14T11:20:13.059Z,6.90
2018-03-14T11:22:40.556Z,6.80
2018-03-14T11:25:08.039Z,6.90
2018-03-14T11:27:35.526Z,6.90
2018-03-14T11:30:03.009Z,6.90
2018-03-14T11:32:30.485Z,6.80
2018-03-14T11:34:57.978Z,6.90
2018-03-14T11:37:25.454Z,6.90
2018-03-14T11:39:52.919Z,6.80
2018-03-14T11:42:20.465Z,6.90
2018-03-14T11:44:47.936Z,6.90
2018-03-14T11:47:15.470Z,7.00
2018-03-14T11:49:43.733Z,7.30
2018-03-14T11:52:11.213Z,7.30
2018-03-14T11:54:38.678Z,7.40
2018-03-14T11:57:06.141Z,7.50
2018-03-14T11:59:33.607Z,7.50
2018-03-14T12:02:01.262Z,7.60
2018-03-14T12:04:28.730Z,7.60
2018-03-14T12:06:56.199Z,7.60
2018-03-14T12:09:23.698Z,7.60
2018-03-14T12:11:51.159Z,7.70
2018-03-14T12:14:18.617Z,7.70
2018-03-14T12:16:46.846Z,7.70
2018-03-14T12:19:14.367Z,7.70
2018-03-14T12:21:41.826Z,7.70
2018-03-14T12:24:10.075Z,7.80
2018-03-14T12:26:37.635Z,7.80
2018-03-14T12:29:05.122Z,7.90
2018-03-14T12:31:32.594Z,7.90
2018-03-14T12:34:00.842Z,7.80
2018-03-14T12:36:29.070Z,7.80
2018-03-14T12:38:56.525Z,7.80
2018-03-14T12:41:24.003Z,7.90
2018-03-14T12:43:52.355Z,7.90
2018-03-14T12:46:20.711Z,7.90
2018-03-14T12:48:48.225Z,7.80
2018-03-14T12:51:15.691Z,8.00
2018-03-14T12:53:43.153Z,8.10
2018-03-14T12:56:10.618Z,8.00
2018-03-14T12:58:38.842Z,8.00
2018-03-14T13:01:06.309Z,8.00
2018-03-14T13:03:34.544Z,8.00
2018-03-14T13:06:02.007Z,8.00
2018-03-14T13:08:29.526Z,8.00
2018-03-14T13:10:56.986Z,8.00
2018-03-14T13:13:24.579Z,8.00
2018-03-14T13:15:52.071Z,8.00
2018-03-14T13:18:19.646Z,8.20
2018-03-14T13:20:47.115Z,8.10
2018-03-14T13:23:14.590Z,8.30
2018-03-14T13:25:42.109Z,8.20
2018-03-14T13:28:09.587Z,8.20
2018-03-14T13:30:37.051Z,8.30
2018-03-14T13:33:04.570Z,8.30
2018-03-14T13:35:32.050Z,8.50
2018-03-14T13:37:59.523Z,8.50
2018-03-14T13:40:26.982Z,8.60
2018-03-14T13:42:55.242Z,8.70
2018-03-14T13:45:22.702Z,8.70
2018-03-14T13:47:50.164Z,8.90
2018-03-14T13:50:18.398Z,9.00
2018-03-14T13:52:45.859Z,8.90
2018-03-14T13:55:14.092Z,8.60
2018-03-14T13:57:41.550Z,8.60
2018-03-14T14:00:09.010Z,8.70
2018-03-14T14:02:36.470Z,8.70
2018-03-14T14:05:03.924Z,8.80
2018-03-14T14:07:32.157Z,8.60
2018-03-14T14:09:59.635Z,8.60
2018-03-14T14:12:27.090Z,8.50
2018-03-14T14:14:54.557Z,8.40
2018-03-14T14:17:22.820Z,8.30
2018-03-14T14:19:50.310Z,8.20
2018-03-14T14:22:17.796Z,8.00
2018-03-14T14:24:45.255Z,8.00
2018-03-14T14:27:12.725Z,8.00
2018-03-14T14:29:40.431Z,8.00
2018-03-14T14:32:08.009Z,7.80
2018-03-14T14:34:35.543Z,7.70
2018-03-14T14:37:03.340Z,7.60
2018-03-14T14:39:30.896Z,7.70
2018-03-14T14:41:58.417Z,7.60
2018-03-14T14:44:26.727Z,7.60
2018-03-14T14:46:55.024Z,7.60
2018-03-14T14:49:23.347Z,7.70
2018-03-14T14:51:50.898Z,7.70
2018-03-14T14:54:18.481Z,7.90
2018-03-14T14:56:46.024Z,8.00
2018-03-14T14:59:13.540Z,8.10
2018-03-14T15:01:41.073Z,8.30
2018-03-14T15:04:09.391Z,8.20
2018-03-14T15:06:37.020Z,8.10
2018-03-14T15:09:04.519Z,8.30
2018-03-14T15:11:32.039Z,8.40
2018-03-14T15:13:59.552Z,8.60
2018-03-14T15:16:27.115Z,8.60
2018-03-14T15:18:54.637Z,8.50
2018-03-14T15:21:22.216Z,8.30
2018-03-14T15:23:49.722Z,8.20
2018-03-14T15:26:18.782Z,8.10
2018-03-14T15:28:47.067Z,8.00
2018-03-14T15:31:14.654Z,8.00
2018-03-14T15:33:42.161Z,8.10
2018-03-14T15:36:09.720Z,8.00
2018-03-14T15:38:37.230Z,7.90
2018-03-14T15:41:04.852Z,7.90
2018-03-14T15:43:32.378Z,7.90
2018-03-14T15:45:59.952Z,7.90
2018-03-14T15:48:27.512Z,7.90
2018-03-14T15:50:55.103Z,7.90
2018-03-14T15:53:22.582Z,7.80
2018-03-14T15:55:50.877Z,7.70
2018-03-14T15:58:19.133Z,7.60
2018-03-14T16:00:46.623Z,7.60
2018-03-14T16:03:14.098Z,7.60
2018-03-14T16:05:42.356Z,7.30
2018-03-14T16:08:09.819Z,7.30
2018-03-14T16:10:37.363Z,7.30
2018-03-14T16:13:04.855Z,7.30
2018-03-14T16:15:32.330Z,7.30
2018-03-14T16:17:59.793Z,7.40
2018-03-14T16:20:28.170Z,7.50
2018-03-14T16:22:55.947Z,7.40
2018-03-14T16:25:23.418Z,7.50
2018-03-14T16:27:50.938Z,7.50
2018-03-14T16:30:19.199Z,7.60
2018-03-14T16:32:46.830Z,7.50
2018-03-14T16:35:15.206Z,7.40
2018-03-14T16:37:42.778Z,7.40
2018-03-14T16:40:10.276Z,7.40
2018-03-14T16:42:37.753Z,7.30
2018-03-14T16:45:05.258Z,7.20
2018-03-14T16:47:32.751Z,7.20
2018-03-14T16:50:00.243Z,7.10
2018-03-14T16:52:27.722Z,7.00
2018-03-14T16:54:55.309Z,6.90
2018-03-14T16:57:22.771Z,6.90
2018-03-14T16:59:50.240Z,6.80
2018-03-14T17:02:17.726Z,6.70
2018-03-14T17:04:45.210Z,6.70
2018-03-14T17:07:13.462Z,6.60
2018-03-14T17:09:40.958Z,6.60
2018-03-14T17:12:08.426Z,6.60
2018-03-14T17:14:35.903Z,6.50
2018-03-14T17:17:03.398Z,6.50
2018-03-14T17:19:30.923Z,6.40
2018-03-14T17:21:59.339Z,6.30
2018-03-14T17:24:26.823Z,6.30
2018-03-14T17:26:55.063Z,6.20
2018-03-14T17:29:22.556Z,6.20
2018-03-14T17:31:50.798Z,6.10
2018-03-14T17:34:19.030Z,6.10
2018-03-14T17:36:46.552Z,6.10
2018-03-14T17:39:14.126Z,6.10
2018-03-14T17:41:41.623Z,6.10
2018-03-14T17:44:09.862Z,6.00
2018-03-14T17:46:38.094Z,6.00
2018-03-14T17:49:06.321Z,5.90
2018-03-14T17:51:33.852Z,5.90
2018-03-14T17:54:01.296Z,5.90
2018-03-14T17:56:28.818Z,5.90
2018-03-14T17:58:56.283Z,5.90
2018-03-14T18:01:23.862Z,5.80
2018-03-14T18:03:51.331Z,5.70
2018-03-14T18:06:18.800Z,5.70
2018-03-14T18:08:47.130Z,5.50
2018-03-14T18:11:14.645Z,5.50
2018-03-14T18:13:42.110Z,5.50
2018-03-14T18:16:09.606Z,5.40
2018-03-14T18:18:37.090Z,5.40
2018-03-14T18:21:04.581Z,5.30
2018-03-14T18:23:32.523Z,5.30
2018-03-14T18:26:00.109Z,5.20
2018-03-14T18:28:27.588Z,5.10
2018-03-14T18:30:55.050Z,5.10
2018-03-14T18:33:22.627Z,5.00
2018-03-14T18:35:50.123Z,5.00
2018-03-14T18:38:17.612Z,4.90
2018-03-14T18:40:45.090Z,4.90
2018-03-14T18:43:12.563Z,4.90
2018-03-14T18:45:40.087Z,4.80
2018-03-14T18:48:07.573Z,4.80
2018-03-14T18:50:35.078Z,4.80
2018-03-14T18:53:02.672Z,4.70
2018-03-14T18:55:30.143Z,4.60
2018-03-14T18:57:57.630Z,4.50
2018-03-14T19:00:25.106Z,4.40
2018-03-14T19:02:53.174Z,4.40
2018-03-14T19:05:20.743Z,4.30
2018-03-14T19:07:48.978Z,4.20
2018-03-14T19:10:17.212Z,4.10
2018-03-14T19:12:45.460Z,4.00
2018-03-14T19:15:12.940Z,4.00
2018-03-14T19:17:40.404Z,3.90
2018-03-14T19:20:08.678Z,3.80
2018-03-14T19:22:36.250Z,3.80
2018-03-14T19:25:03.726Z,3.70
2018-03-14T19:27:32.048Z,3.60
2018-03-14T19:29:59.535Z,3.50
2018-03-14T19:32:26.994Z,3.30
2018-03-14T19:34:54.512Z,3.20
2018-03-14T19:37:22.092Z,3.10
2018-03-14T19:39:49.571Z,3.00
2018-03-14T19:42:17.032Z,2.90
2018-03-14T19:44:44.513Z,2.80
2018-03-14T19:47:12.036Z,2.70
2018-03-14T19:49:39.624Z,2.60
2018-03-14T19:52:07.104Z,2.50
2018-03-14T19:54:34.564Z,2.40
2018-03-14T19:57:02.076Z,2.40
2018-03-14T19:59:29.611Z,2.30
2018-03-14T20:01:57.084Z,2.30
2018-03-14T20:04:25.315Z,2.30
2018-03-14T20:06:52.786Z,2.20
2018-03-14T20:09:20.250Z,2.20
2018-03-14T20:11:48.482Z,2.20
2018-03-14T20:14:15.960Z,2.10
2018-03-14T20:16:43.482Z,2.10
2018-03-14T20:19:10.979Z,2.10
2018-03-14T20:21:38.547Z,2.10
2018-03-14T20:24:06.040Z,2.10
2018-03-14T20:26:33.539Z,2.00
2018-03-14T20:29:00.999Z,1.90
2018-03-14T20:31:28.617Z,1.90
2018-03-14T20:33:56.130Z,1.90
2018-03-14T20:36:24.366Z,1.80
2018-03-14T20:38:51.834Z,1.80
2018-03-14T20:41:20.136Z,1.70
2018-03-14T20:43:47.603Z,1.60
2018-03-14T20:46:15.066Z,1.60
2018-03-14T20:48:42.530Z,1.50
2018-03-14T20:51:10.779Z,1.40
2018-03-14T20:53:38.244Z,1.40
2018-03-14T20:56:05.789Z,1.30
2018-03-14T20:58:33.210Z,1.20
2018-03-14T21:01:00.671Z,1.10
2018-03-14T21:03:28.219Z,1.10
2018-03-14T21:05:55.695Z,1.10
2018-03-14T21:08:23.178Z,1.10
2018-03-14T21:10:50.654Z,1.00
2018-03-14T21:13:18.142Z,0.90
2018-03-14T21:15:45.603Z,0.80
2018-03-14T21:18:13.100Z,0.80
2018-03-14T21:20:40.611Z,0.70
2018-03-14T21:23:08.087Z,0.70
2018-03-14T21:25:35.572Z,0.60
2018-03-14T21:28:03.058Z,0.70
2018-03-14T21:30:30.529Z,0.60
2018-03-14T21:32:57.998Z,0.40
2018-03-14T21:35:25.466Z,0.30
2018-03-14T21:37:53.376Z,0.30
2018-03-14T21:40:20.893Z,0.30
2018-03-14T21:42:48.368Z,0.30
2018-03-14T21:45:15.876Z,0.20
2018-03-14T21:47:43.350Z,0.20
2018-03-14T21:50:10.818Z,0.10
2018-03-14T21:52:38.288Z,0.00
2018-03-14T21:55:05.783Z,0.00
2018-03-14T21:57:33.234Z,0.00
2018-03-14T22:00:00.867Z,-0.10
2018-03-14T22:02:28.379Z,-0.20
2018-03-14T22:04:55.836Z,-0.30
2018-03-14T22:07:23.307Z,-0.20
2018-03-14T22:09:50.875Z,-0.20
2018-03-14T22:12:18.385Z,-0.20
2018-03-14T22:14:45.896Z,-0.20
2018-03-14T22:17:13.367Z,-0.30
2018-03-14T22:19:40.840Z,-0.40
2018-03-14T22:22:08.307Z,-0.40
2018-03-14T22:24:35.775Z,-0.40
2018-03-14T22:27:04.007Z,-0.30
2018-03-14T22:29:31.481Z,-0.40
2018-03-14T22:31:58.958Z,-0.40
2018-03-14T22:34:26.427Z,-0.40
2018-03-14T22:36:53.973Z,-0.50
2018-03-14T22:39:21.443Z,-0.50
2018-03-14T22:41:48.933Z,-0.50
2018-03-14T22:44:16.435Z,-0.50
2018-03-14T22:46:43.902Z,-0.50
2018-03-14T22:49:11.434Z,-0.60
2018-03-14T22:51:38.912Z,-0.60
2018-03-14T22:54:06.374Z,-0.80
2018-03-14T22:56:33.898Z,-0.80
2018-03-14T22:59:01.519Z,-0.90
2018-03-14T23:01:28.962Z,-0.90
2018-03-14T23:03:56.438Z,-1.00
2018-03-14T23:06:23.906Z,-1.00
2018-03-14T23:08:51.390Z,-1.00
2018-03-14T23:11:18.868Z,-1.00
2018-03-14T23:13:46.341Z,-1.00
2018-03-14T23:16:14.581Z,-0.90
2018-03-14T23:18:42.055Z,-1.00
2018-03-14T23:21:09.535Z,-1.00
2018-03-14T23:23:37.054Z,-1.00
2018-03-14T23:26:04.525Z,-1.00
2018-03-14T23:28:32.006Z,-1.00
2018-03-14T23:30:59.474Z,-1.10
2018-03-14T23:33:26.947Z,-1.10
2018-03-14T23:35:54.411Z,-1.10
2018-03-14T23:38:22.698Z,-1.10
2018-03-14T23:40:50.260Z,-1.10
2018-03-14T23:43:17.738Z,-1.10
2018-03-14T23:45:45.202Z,-1.10
2018-03-14T23:48:12.672Z,-1.20
2018-03-14T23:50:40.915Z,-1.30
2018-03-14T23:53:08.434Z,-1.30
2018-03-14T23:55:35.998Z,-1.30
2018-03-14T23:58:03.491Z,-1.30
